Terminal Aerodrome Forecast
Issued by NWS Binghamton, NY

Home | Current Version | Previous Version | Text Only | Print | Product List | Glossary On
Versions: 1 2 3 4 5 6 7 8 9 10 11 12 13 14 15 16 17 18 19 20 21
000
FTUS41 KBGM 221700
TAFAVP
TAF
KAVP 221740Z 2218/2318 15004KT P6SM BKN030
      TEMPO 2219/2223 3SM SHRA BR OVC020
     FM230200 11003KT P6SM BKN020
      TEMPO 2307/2311 5SM -SHRA BR BKN012
     FM231500 07003KT P6SM BKN025=

USA.gov is the U.S. government's official web portal to all federal, state and local government web resources and services.